Time;durP1;ratioP1;P1;durP2;ratioP2;P2;SDS_P1;SDS_P2;PMS_P1;PMS_P2;Temp;Humidity;BMP_temperature;BMP_pressure;BME280_temperature;BME280_humidity;BME280_pressure;Samples;Min_cycle;Max_cycle;Signal;HPM_P1;HPM_P2
2023/12/19 00:01:19;;;;;;;38.93;16.40;;;;;;;-0.11;100.00;96964.16;7401824;19;20400;-86
2023/12/19 00:03:46;;;;;;;22.37;13.53;;;;;;;-0.08;100.00;96961.16;7404141;19;20392;-85
2023/12/19 00:06:14;;;;;;;17.27;13.43;;;;;;;0.03;100.00;96968.19;7403392;19;20385;-85
2023/12/19 00:08:41;;;;;;;15.90;12.47;;;;;;;-0.06;100.00;96946.25;7402613;19;20635;-85
2023/12/19 00:11:09;;;;;;;19.77;13.40;;;;;;;-0.56;100.00;96874.97;7401782;19;20365;-86
2023/12/19 00:13:36;;;;;;;19.20;12.23;;;;;;;-0.28;100.00;96912.34;7401922;19;20381;-85
2023/12/19 00:16:04;;;;;;;19.10;12.57;;;;;;;-0.05;100.00;96948.59;7399377;19;20401;-85
2023/12/19 00:18:31;;;;;;;20.00;12.03;;;;;;;0.21;100.00;96978.50;7402782;19;20372;-85
2023/12/19 00:21:00;;;;;;;34.57;12.80;;;;;;;-0.49;100.00;96874.09;7402109;19;20372;-85
2023/12/19 00:23:31;;;;;;;17.30;12.60;;;;;;;-0.46;100.00;96860.75;7402110;19;20880;-86
2023/12/19 00:25:59;;;;;;;22.17;12.93;;;;;;;-0.01;100.00;96960.09;7402565;19;20380;-85
2023/12/19 00:28:27;;;;;;;15.60;12.37;;;;;;;-0.23;100.00;96927.19;7401695;19;20385;-85
2023/12/19 00:30:54;;;;;;;14.30;11.87;;;;;;;-0.04;100.00;96957.94;7401680;19;20443;-85
2023/12/19 00:33:22;;;;;;;18.90;13.10;;;;;;;-0.33;100.00;96915.56;7401820;19;20363;-85
2023/12/19 00:35:50;;;;;;;27.43;15.33;;;;;;;-0.60;100.00;96878.16;7399461;19;20404;-86
2023/12/19 00:38:17;;;;;;;24.63;13.23;;;;;;;-0.43;100.00;96899.03;7401710;19;20389;-86
2023/12/19 00:40:45;;;;;;;22.67;12.50;;;;;;;-0.02;100.00;96931.94;7400973;19;20451;-86
2023/12/19 00:43:12;;;;;;;20.70;12.40;;;;;;;-0.08;100.00;96892.28;7401180;19;20384;-85
2023/12/19 00:45:40;;;;;;;20.43;12.47;;;;;;;0.28;100.00;96943.09;7401097;19;20393;-86
2023/12/19 00:48:07;;;;;;;14.30;12.07;;;;;;;-0.44;100.00;96830.41;7400983;19;20392;-85
2023/12/19 00:50:34;;;;;;;17.07;13.10;;;;;;;-0.45;100.00;96839.13;7400802;19;20373;-85
2023/12/19 00:53:02;;;;;;;19.70;12.10;;;;;;;-0.49;100.00;96892.13;7398884;19;20391;-84
2023/12/19 00:55:29;;;;;;;15.83;12.33;;;;;;;-0.70;100.00;96895.91;7398972;19;20389;-85
2023/12/19 00:57:57;;;;;;;22.10;12.43;;;;;;;-0.89;100.00;96889.91;7400681;19;20384;-86
2023/12/19 01:00:24;;;;;;;23.03;12.40;;;;;;;-1.47;100.00;96784.66;7402259;19;20365;-85
2023/12/19 01:02:52;;;;;;;19.50;12.07;;;;;;;-0.38;100.00;96901.75;7398843;19;20381;-85
2023/12/19 01:05:19;;;;;;;27.63;12.70;;;;;;;0.25;100.00;96978.88;7400555;19;20371;-85
2023/12/19 01:07:46;;;;;;;22.83;11.73;;;;;;;0.04;100.00;96985.25;7400353;19;20436;-85
2023/12/19 01:10:14;;;;;;;20.60;13.77;;;;;;;-0.27;100.00;96940.50;7400011;19;20376;-85
2023/12/19 01:12:41;;;;;;;22.67;12.80;;;;;;;0.01;100.00;96942.59;7397994;19;20921;-85
2023/12/19 01:15:09;;;;;;;20.87;14.17;;;;;;;-0.59;100.00;96851.38;7399036;19;20445;-85
2023/12/19 01:17:37;;;;;;;35.40;17.23;;;;;;;-0.67;100.00;96851.69;7400198;19;20408;-85
2023/12/19 01:20:04;;;;;;;19.70;14.33;;;;;;;-0.46;100.00;96879.59;7400724;19;20724;-85
2023/12/19 01:22:33;;;;;;;18.20;14.13;;;;;;;-0.44;100.00;96900.81;7400299;19;20385;-85
2023/12/19 01:25:00;;;;;;;13.07;10.60;;;;;;;-0.25;100.00;96948.03;7400254;19;20381;-85
2023/12/19 01:27:28;;;;;;;20.13;14.83;;;;;;;-0.53;100.00;96893.56;7399521;19;20393;-85
2023/12/19 01:29:55;;;;;;;24.67;13.00;;;;;;;-0.17;100.00;96893.59;7400539;19;20381;-85
2023/12/19 01:32:25;;;;;;;18.03;12.00;;;;;;;-0.22;100.00;96887.50;7398147;19;20901;-85
2023/12/19 01:34:53;;;;;;;17.97;11.27;;;;;;;0.01;100.00;96924.53;7399026;19;20408;-85
2023/12/19 01:37:20;;;;;;;14.90;12.50;;;;;;;-0.57;100.00;96839.09;7401517;19;20372;-85
2023/12/19 01:39:48;;;;;;;15.60;12.13;;;;;;;-0.42;100.00;96859.34;7397888;19;20405;-85
2023/12/19 01:42:15;;;;;;;13.40;11.57;;;;;;;-0.02;100.00;96912.06;7398041;19;20492;-85
2023/12/19 01:45:00;;;;;;;12.20;10.90;;;;;;;-0.35;100.00;96886.63;7399149;19;20867;-85
2023/12/19 01:47:28;;;;;;;14.60;11.57;;;;;;;0.15;100.00;96950.19;7399471;19;20392;-85
2023/12/19 01:49:55;;;;;;;17.43;12.67;;;;;;;0.02;100.00;96935.66;7398806;19;20464;-85
2023/12/19 01:52:23;;;;;;;30.63;14.30;;;;;;;-0.07;100.00;96882.75;7399272;19;20397;-85
2023/12/19 01:54:50;;;;;;;20.57;12.00;;;;;;;-0.17;100.00;96860.06;7398290;19;20389;-85
2023/12/19 01:57:18;;;;;;;14.50;13.07;;;;;;;0.01;100.00;96880.69;7403012;19;20447;-85
2023/12/19 01:59:46;;;;;;;12.83;11.50;;;;;;;-0.39;100.00;96820.25;7410287;19;20361;-85
2023/12/19 02:02:13;;;;;;;14.07;12.07;;;;;;;-0.16;100.00;96848.75;7406515;19;20417;-85
2023/12/19 02:04:41;;;;;;;11.43;10.33;;;;;;;-0.38;100.00;96829.56;7409538;19;20373;-85
2023/12/19 02:07:09;;;;;;;18.13;11.70;;;;;;;-0.11;100.00;96863.56;7404537;19;20742;-80
2023/12/19 02:09:36;;;;;;;15.73;12.10;;;;;;;0.12;100.00;96899.03;7399580;19;20436;-84
2023/12/19 02:12:05;;;;;;;13.87;11.50;;;;;;;0.17;100.00;96873.34;7396813;19;20491;-84
2023/12/19 02:14:32;;;;;;;13.33;11.00;;;;;;;-0.32;100.00;96795.16;7397690;19;20464;-85
2023/12/19 02:17:00;;;;;;;13.33;11.90;;;;;;;0.06;100.00;96861.16;7398113;19;20467;-85
2023/12/19 02:19:27;;;;;;;15.10;12.00;;;;;;;-0.10;100.00;96859.97;7397752;19;20392;-84
2023/12/19 02:21:55;;;;;;;16.53;12.27;;;;;;;-0.23;100.00;96842.06;7397416;19;20444;-84
2023/12/19 02:24:24;;;;;;;12.90;11.30;;;;;;;-0.96;100.00;96729.50;7398086;19;20675;-85
2023/12/19 02:26:51;;;;;;;12.67;11.37;;;;;;;-0.45;100.00;96810.78;7397399;19;20444;-84
2023/12/19 02:29:19;;;;;;;13.03;11.00;;;;;;;0.31;100.00;96939.28;7399326;19;20666;-85
2023/12/19 02:31:46;;;;;;;13.73;10.63;;;;;;;-0.62;100.00;96806.22;7396716;19;20412;-84
2023/12/19 02:34:14;;;;;;;17.27;13.47;;;;;;;-0.09;100.00;96890.72;7397593;19;20374;-85
2023/12/19 02:36:41;;;;;;;14.33;11.07;;;;;;;-1.02;100.00;96738.84;7395795;19;20344;-84
2023/12/19 02:39:11;;;;;;;14.73;12.50;;;;;;;-0.16;100.00;96860.84;7397140;19;20754;-85
2023/12/19 02:41:38;;;;;;;15.47;11.47;;;;;;;-0.04;100.00;96872.81;7396795;19;20416;-85
2023/12/19 02:44:06;;;;;;;12.97;11.63;;;;;;;-0.05;100.00;96891.06;7397824;19;20364;-85
2023/12/19 02:46:33;;;;;;;15.83;12.70;;;;;;;-0.52;100.00;96822.97;7396967;19;20882;-85
2023/12/19 02:49:01;;;;;;;18.53;13.87;;;;;;;0.19;100.00;96949.53;7397106;19;20436;-85
2023/12/19 02:51:32;;;;;;;14.53;12.10;;;;;;;0.35;100.00;96963.66;7397081;19;20400;-84
2023/12/19 02:53:59;;;;;;;15.13;11.87;;;;;;;-0.33;100.00;96858.03;7397647;19;20384;-85
2023/12/19 02:56:28;;;;;;;14.70;11.40;;;;;;;-0.74;100.00;96792.44;7396111;19;20396;-84
2023/12/19 02:58:56;;;;;;;19.63;12.73;;;;;;;-0.35;100.00;96854.91;7398530;19;20929;-84
2023/12/19 03:01:23;;;;;;;13.30;11.90;;;;;;;-0.23;100.00;96862.72;7396637;19;20397;-84
2023/12/19 03:03:51;;;;;;;17.33;12.63;;;;;;;-0.03;100.00;96891.66;7396402;19;20389;-85
2023/12/19 03:06:18;;;;;;;16.00;13.60;;;;;;;-0.40;100.00;96801.41;7396650;19;20360;-85
2023/12/19 03:08:47;;;;;;;15.77;12.27;;;;;;;0.65;100.00;96943.03;7396372;19;20861;-85
2023/12/19 03:11:14;;;;;;;15.43;12.03;;;;;;;0.44;100.00;96886.69;7396105;19;20862;-85
2023/12/19 03:13:42;;;;;;;16.63;12.50;;;;;;;0.18;100.00;96855.06;7395668;19;20368;-85
2023/12/19 03:16:10;;;;;;;16.33;12.20;;;;;;;-0.13;100.00;96819.16;7395532;19;20472;-85
2023/12/19 03:18:37;;;;;;;14.60;12.33;;;;;;;-0.14;100.00;96823.53;7396344;19;20389;-85
2023/12/19 03:21:06;;;;;;;15.90;12.77;;;;;;;0.48;100.00;96924.75;7395906;19;20380;-85
2023/12/19 03:23:34;;;;;;;18.00;14.00;;;;;;;0.10;100.00;96870.06;7396577;19;20412;-85
2023/12/19 03:26:02;;;;;;;17.50;13.50;;;;;;;-0.42;100.00;96789.75;7396209;19;20373;-85
2023/12/19 03:28:29;;;;;;;23.23;16.43;;;;;;;0.12;100.00;96868.84;7395948;19;20380;-85
2023/12/19 03:30:56;;;;;;;18.93;13.27;;;;;;;-0.30;100.00;96790.59;7396142;19;20448;-85
2023/12/19 03:33:24;;;;;;;25.13;16.00;;;;;;;0.16;100.00;96848.53;7395812;19;20392;-85
2023/12/19 03:35:51;;;;;;;24.90;14.77;;;;;;;0.15;100.00;96852.13;7394875;19;20866;-85
2023/12/19 03:38:19;;;;;;;18.23;12.57;;;;;;;0.25;100.00;96831.75;7396555;19;20361;-85
2023/12/19 03:40:46;;;;;;;21.13;13.23;;;;;;;0.05;100.00;96806.22;7394366;19;20426;-84
2023/12/19 03:43:14;;;;;;;17.60;11.63;;;;;;;-0.01;100.00;96818.19;7396643;19;20399;-85
2023/12/19 03:45:41;;;;;;;19.47;13.27;;;;;;;0.05;100.00;96829.41;7396375;19;20873;-85
2023/12/19 03:48:09;;;;;;;17.57;13.10;;;;;;;-0.21;100.00;96781.53;7396058;19;20368;-85
2023/12/19 03:50:36;;;;;;;14.13;11.10;;;;;;;-0.14;100.00;96799.53;7395477;19;20898;-85
2023/12/19 03:53:04;;;;;;;13.73;11.60;;;;;;;0.03;100.00;96805.63;7394163;19;20372;-85
2023/12/19 03:55:31;;;;;;;22.13;11.03;;;;;;;0.08;100.00;96803.19;7395142;19;20377;-85
2023/12/19 03:57:58;;;;;;;14.70;10.10;;;;;;;-0.41;100.00;96729.44;7397196;19;20364;-83
2023/12/19 04:00:26;;;;;;;11.50;10.30;;;;;;;-0.06;100.00;96770.81;7395646;19;20413;-85
2023/12/19 04:02:53;;;;;;;13.40;11.10;;;;;;;-0.30;100.00;96737.22;7393629;19;20896;-85
2023/12/19 04:05:21;;;;;;;14.57;12.40;;;;;;;0.05;100.00;96793.31;7394942;19;20400;-84
2023/12/19 04:07:48;;;;;;;16.33;13.23;;;;;;;-0.42;100.00;96738.19;7395799;19;20472;-84
2023/12/19 04:10:15;;;;;;;17.70;12.63;;;;;;;-0.59;100.00;96733.59;7394935;19;20464;-85
2023/12/19 04:12:46;;;;;;;14.80;11.90;;;;;;;-0.07;100.00;96824.22;7393484;19;20409;-84
2023/12/19 04:15:14;;;;;;;13.17;11.60;;;;;;;0.13;100.00;96838.66;7394719;19;20877;-85
2023/12/19 04:17:41;;;;;;;12.60;10.97;;;;;;;0.11;100.00;96838.09;7396008;19;20388;-85
2023/12/19 04:20:10;;;;;;;11.90;10.47;;;;;;;0.00;100.00;96835.25;7395609;19;20401;-85
2023/12/19 04:22:38;;;;;;;12.57;11.27;;;;;;;-0.10;100.00;96816.13;7393128;19;20404;-85
2023/12/19 04:25:06;;;;;;;14.70;11.47;;;;;;;-0.34;100.00;96797.97;7401083;19;20389;-84
2023/12/19 04:27:34;;;;;;;13.87;11.70;;;;;;;-0.43;100.00;96777.88;7402740;19;20409;-84
2023/12/19 04:30:02;;;;;;;13.23;10.83;;;;;;;-0.48;100.00;96757.88;7403122;19;20376;-84
2023/12/19 04:32:30;;;;;;;12.20;10.83;;;;;;;0.30;100.00;96873.19;7400423;19;20498;-85
2023/12/19 04:34:58;;;;;;;14.40;12.00;;;;;;;-0.44;100.00;96753.88;7402510;19;20373;-85
2023/12/19 04:37:25;;;;;;;15.00;12.67;;;;;;;-0.14;100.00;96776.31;7399661;19;20877;-85
2023/12/19 04:39:52;;;;;;;17.70;13.30;;;;;;;-0.14;100.00;96773.72;7400406;19;20396;-85
2023/12/19 04:42:20;;;;;;;16.87;12.03;;;;;;;-0.30;100.00;96744.97;7399970;19;20754;-85
2023/12/19 04:44:47;;;;;;;14.60;12.10;;;;;;;-0.37;100.00;96718.47;7401422;19;20384;-85
2023/12/19 04:47:15;;;;;;;15.07;11.73;;;;;;;-0.04;100.00;96768.81;7401451;19;20468;-85
2023/12/19 04:49:43;;;;;;;13.87;11.93;;;;;;;-0.12;100.00;96771.72;7402279;19;20381;-85
2023/12/19 04:52:10;;;;;;;17.17;12.33;;;;;;;-0.89;100.00;96661.44;7399566;19;20412;-85
2023/12/19 04:54:38;;;;;;;16.23;11.50;;;;;;;-0.35;100.00;96747.41;7403038;19;20366;-85
2023/12/19 04:57:06;;;;;;;13.83;11.03;;;;;;;-0.41;100.00;96688.19;7400889;19;20393;-85
2023/12/19 04:59:33;;;;;;;13.90;11.10;;;;;;;-0.03;100.00;96729.13;7401467;19;20388;-86
2023/12/19 05:02:01;;;;;;;12.40;10.07;;;;;;;-0.69;100.00;96643.16;7399616;19;20699;-85
2023/12/19 05:04:29;;;;;;;13.40;11.20;;;;;;;-0.24;100.00;96707.19;7400720;19;20838;-86
2023/12/19 05:06:56;;;;;;;13.60;11.13;;;;;;;-0.60;100.00;96656.50;7400677;19;20389;-85
2023/12/19 05:09:25;;;;;;;15.17;12.07;;;;;;;0.57;100.00;96833.06;7400935;19;20447;-85
2023/12/19 05:11:53;;;;;;;13.77;12.13;;;;;;;-0.17;100.00;96733.69;7399946;19;20416;-86
2023/12/19 05:14:20;;;;;;;16.43;12.50;;;;;;;-0.35;100.00;96723.41;7401121;19;20690;-86
2023/12/19 05:16:47;;;;;;;15.93;12.70;;;;;;;-0.27;100.00;96759.22;7399351;19;20385;-85
2023/12/19 05:19:15;;;;;;;14.37;10.60;;;;;;;-0.45;100.00;96725.72;7400621;19;20389;-85
2023/12/19 05:21:42;;;;;;;15.33;11.33;;;;;;;-0.20;100.00;96752.16;7399706;19;20423;-85
2023/12/19 05:24:10;;;;;;;16.73;14.00;;;;;;;0.03;100.00;96767.72;7400706;19;20393;-85
2023/12/19 05:26:37;;;;;;;15.37;12.07;;;;;;;-0.32;100.00;96716.00;7401055;19;20373;-85
2023/12/19 05:29:05;;;;;;;17.10;12.63;;;;;;;0.41;100.00;96820.81;7401901;19;20683;-85
2023/12/19 05:31:36;;;;;;;18.60;13.67;;;;;;;-0.18;100.00;96729.50;7400108;19;20790;-85
2023/12/19 05:34:06;;;;;;;16.73;12.13;;;;;;;-0.42;100.00;96687.41;7402760;19;20365;-85
2023/12/19 05:36:46;;;;;;;15.60;11.47;;;;;;;0.45;100.00;96818.56;7397668;19;20639;-85
2023/12/19 05:39:17;;;;;;;15.17;12.20;;;;;;;-0.71;100.00;96629.72;7401802;19;20691;-85
2023/12/19 05:41:51;;;;;;;16.07;13.20;;;;;;;-0.01;100.00;96716.81;7400278;19;20782;-85
2023/12/19 05:44:33;;;;;;;;;;;;;;;;;;;;;
2023/12/19 05:47:06;;;;;;;15.07;12.00;;;;;;;-0.30;100.00;96683.09;7401149;19;20395;-85
2023/12/19 05:49:41;;;;;;;13.87;12.30;;;;;;;0.00;100.00;96729.47;7400933;19;20377;-85
2023/12/19 05:52:11;;;;;;;16.70;12.83;;;;;;;0.18;100.00;96766.53;7399387;19;20766;-85
2023/12/19 05:54:39;;;;;;;14.57;12.83;;;;;;;-0.02;100.00;96738.44;7398290;19;20410;-85
2023/12/19 05:57:06;;;;;;;14.67;11.83;;;;;;;-0.46;100.00;96678.53;7404653;19;20413;-87
2023/12/19 05:59:34;;;;;;;13.60;11.27;;;;;;;-0.41;100.00;96690.78;7399295;19;20385;-87
2023/12/19 06:02:02;;;;;;;14.10;12.40;;;;;;;-0.65;100.00;96644.28;7398268;19;20424;-87
2023/12/19 06:04:29;;;;;;;16.43;11.90;;;;;;;-0.15;100.00;96718.78;7398585;19;20931;-88
2023/12/19 06:06:56;;;;;;;15.50;12.90;;;;;;;-0.69;100.00;96625.13;7399151;19;20388;-87
2023/12/19 06:09:25;;;;;;;13.63;11.63;;;;;;;0.13;100.00;96750.94;7399743;19;20590;-86
2023/12/19 06:11:52;;;;;;;17.20;11.50;;;;;;;0.06;100.00;96753.59;7397457;19;20405;-87
2023/12/19 06:14:20;;;;;;;15.30;12.73;;;;;;;-0.30;100.00;96693.41;7398964;19;20365;-87
2023/12/19 06:16:47;;;;;;;17.80;13.70;;;;;;;-0.61;100.00;96637.69;7398130;19;20377;-87
2023/12/19 06:19:15;;;;;;;14.80;11.83;;;;;;;-0.20;100.00;96697.22;7398524;19;20377;-88
2023/12/19 06:21:43;;;;;;;18.30;14.90;;;;;;;-0.14;100.00;96698.94;7397519;19;20416;-87
2023/12/19 06:24:10;;;;;;;17.00;14.13;;;;;;;-0.17;100.00;96689.03;7398503;19;20388;-87
2023/12/19 06:26:37;;;;;;;17.83;15.93;;;;;;;0.05;100.00;96669.47;7398149;19;20478;-87
2023/12/19 06:29:06;;;;;;;18.00;14.60;;;;;;;-0.16;100.00;96628.72;7398887;19;20392;-87
2023/12/19 06:31:39;;;;;;;16.40;14.33;;;;;;;0.30;100.00;96692.50;7397606;19;20377;-88
2023/12/19 06:34:06;;;;;;;18.53;16.37;;;;;;;-0.08;100.00;96660.13;7399105;19;20716;-88
2023/12/19 06:36:34;;;;;;;21.87;17.80;;;;;;;-0.36;100.00;96616.13;7398475;19;20460;-88
2023/12/19 06:39:03;;;;;;;15.60;13.90;;;;;;;0.79;100.00;96814.47;7398404;19;20393;-88
2023/12/19 06:41:45;;;;;;;14.30;12.83;;;;;;;0.18;100.00;96738.16;7399128;19;20416;-87
2023/12/19 06:44:13;;;;;;;17.63;13.80;;;;;;;0.03;100.00;96731.59;7398569;19;20361;-88
2023/12/19 06:46:42;;;;;;;14.10;12.37;;;;;;;-0.38;100.00;96649.09;7397400;19;20385;-88
2023/12/19 06:49:10;;;;;;;17.33;11.80;;;;;;;0.17;100.00;96739.16;7397908;19;20880;-88
2023/12/19 06:51:45;;;;;;;14.40;11.40;;;;;;;-0.65;100.00;96618.50;7397250;19;20407;-88
2023/12/19 06:54:15;;;;;;;16.73;12.53;;;;;;;-0.06;100.00;96696.81;7398556;19;20398;-87
2023/12/19 06:56:42;;;;;;;17.60;12.40;;;;;;;-0.17;100.00;96676.13;7395633;19;20365;-87
2023/12/19 06:59:10;;;;;;;14.93;11.90;;;;;;;0.10;100.00;96731.53;7396528;19;20387;-86
2023/12/19 07:01:39;;;;;;;17.47;13.83;;;;;;;-0.20;100.00;96674.78;7400394;19;20425;-87
2023/12/19 07:04:06;;;;;;;18.33;13.97;;;;;;;-0.78;100.00;96582.63;7397812;19;20393;-87
2023/12/19 07:06:34;;;;;;;18.00;13.97;;;;;;;-0.01;100.00;96691.78;7397432;19;20372;-86
2023/12/19 07:09:02;;;;;;;19.00;13.40;;;;;;;-0.28;100.00;96650.13;7397956;19;20373;-87
2023/12/19 07:11:30;;;;;;;15.23;12.93;;;;;;;-0.08;100.00;96685.94;7396317;19;20897;-87
2023/12/19 07:13:57;;;;;;;17.17;12.67;;;;;;;-0.02;100.00;96702.34;7396547;19;20398;-88
2023/12/19 07:16:25;;;;;;;17.50;12.33;;;;;;;-0.44;100.00;96632.72;7397245;19;20458;-87
2023/12/19 07:18:52;;;;;;;20.10;12.37;;;;;;;-0.08;100.00;96685.94;7397863;19;20384;-87
2023/12/19 07:21:25;;;;;;;14.93;12.23;;;;;;;0.11;100.00;96722.00;7396403;19;20411;-87
2023/12/19 07:23:54;;;;;;;14.23;11.33;;;;;;;0.68;100.00;96813.44;7399835;19;20460;-87
2023/12/19 07:26:28;;;;;;;17.40;13.53;;;;;;;0.72;100.00;96800.88;7396650;19;20365;-87
2023/12/19 07:28:57;;;;;;;15.67;13.47;;;;;;;0.22;100.00;96709.09;7397978;19;20655;-87
2023/12/19 07:31:27;;;;;;;17.97;13.13;;;;;;;0.17;100.00;96703.03;7395557;19;20426;-87
2023/12/19 07:33:56;;;;;;;18.30;13.40;;;;;;;0.56;100.00;96753.25;7397080;19;20387;-87
2023/12/19 07:36:26;;;;;;;20.40;15.87;;;;;;;0.90;100.00;96791.25;7395958;19;20603;-87
2023/12/19 07:38:54;;;;;;;18.77;15.03;;;;;;;0.60;100.00;96744.03;7396198;19;20460;-87
2023/12/19 07:41:23;;;;;;;16.03;13.77;;;;;;;0.48;100.00;96725.94;7397104;19;20404;-86
2023/12/19 07:43:50;;;;;;;20.57;14.50;;;;;;;0.41;100.00;96701.28;7395841;19;20369;-87
2023/12/19 07:46:19;;;;;;;15.50;13.33;;;;;;;0.90;100.00;96749.13;7395977;19;20381;-87
2023/12/19 07:48:46;;;;;;;19.50;13.40;;;;;;;0.66;100.00;96706.22;7395403;19;20456;-87
2023/12/19 07:51:23;;;;;;;25.37;16.47;;;;;;;0.27;100.00;96649.88;7395067;19;20404;-87
2023/12/19 07:53:56;;;;;;;27.77;19.23;;;;;;;0.92;100.00;96757.44;7395625;19;20394;-87
2023/12/19 07:56:23;;;;;;;32.07;22.37;;;;;;;0.36;100.00;96655.44;7395455;19;20384;-87
2023/12/19 07:58:52;;;;;;;27.70;17.80;;;;;;;1.28;100.00;96800.31;7397355;19;20405;-87
2023/12/19 08:01:20;;;;;;;24.37;15.63;;;;;;;0.87;100.00;96746.97;7402846;19;20371;-87
2023/12/19 08:03:48;;;;;;;22.23;15.73;;;;;;;0.42;100.00;96666.69;7403321;19;20692;-87
2023/12/19 08:06:15;;;;;;;22.87;16.40;;;;;;;1.02;100.00;96731.00;7403858;19;20377;-87
2023/12/19 08:08:43;;;;;;;17.40;13.47;;;;;;;1.13;100.00;96743.91;7403315;19;20400;-88
2023/12/19 08:11:12;;;;;;;20.27;14.47;;;;;;;0.65;100.00;96651.19;7402530;19;20405;-87
2023/12/19 08:13:43;;;;;;;34.53;21.73;;;;;;;0.13;100.00;96585.78;7405481;19;20361;-87
2023/12/19 08:16:11;;;;;;;31.80;21.83;;;;;;;0.68;100.00;96662.88;7403517;19;20460;-87
2023/12/19 08:18:39;;;;;;;35.43;22.60;;;;;;;0.18;100.00;96597.00;7400358;19;20463;-87
2023/12/19 08:21:06;;;;;;;27.10;18.00;;;;;;;0.73;100.00;96671.50;7404281;19;20416;-87
2023/12/19 08:23:34;;;;;;;18.87;15.20;;;;;;;1.19;100.00;96753.34;7410207;19;20387;-87
2023/12/19 08:26:01;;;;;;;16.70;13.63;;;;;;;1.05;100.00;96731.34;7409642;19;20445;-87
2023/12/19 08:28:28;;;;;;;15.60;12.77;;;;;;;0.62;100.00;96657.56;7407910;19;20384;-86
2023/12/19 08:30:56;;;;;;;18.17;13.60;;;;;;;0.15;100.00;96589.72;7401710;19;20383;-88
2023/12/19 08:33:23;;;;;;;14.90;11.57;;;;;;;1.07;100.00;96729.31;7401700;19;20396;-87
2023/12/19 08:35:51;;;;;;;18.03;13.63;;;;;;;0.56;100.00;96637.84;7403654;19;20388;-87
2023/12/19 08:38:18;;;;;;;16.03;13.10;;;;;;;0.68;100.00;96660.28;7402897;19;20850;-87
2023/12/19 08:40:46;;;;;;;16.30;13.27;;;;;;;0.70;100.00;96677.13;7402523;19;20417;-87
2023/12/19 08:43:13;;;;;;;18.83;13.60;;;;;;;0.25;100.00;96587.38;7404077;19;20404;-87
2023/12/19 08:45:41;;;;;;;22.03;13.93;;;;;;;0.82;100.00;96664.19;7402100;19;20389;-87
2023/12/19 08:48:09;;;;;;;18.93;13.47;;;;;;;0.73;100.00;96630.16;7401750;19;20379;-87
2023/12/19 08:50:37;;;;;;;15.80;13.23;;;;;;;0.51;100.00;96599.00;7401493;19;20385;-87
2023/12/19 08:53:05;;;;;;;17.03;13.10;;;;;;;0.92;100.00;96661.81;7399018;19;20397;-88
2023/12/19 08:55:32;;;;;;;17.33;15.20;;;;;;;0.86;100.00;96663.50;7403563;19;20369;-87
2023/12/19 08:58:00;;;;;;;20.40;14.27;;;;;;;1.34;100.00;96719.25;7400766;19;20405;-88
2023/12/19 09:00:27;;;;;;;17.00;13.33;;;;;;;0.67;100.00;96594.94;7400724;19;20385;-88
2023/12/19 09:02:55;;;;;;;15.37;12.23;;;;;;;0.88;100.00;96598.69;7399114;19;20420;-87
2023/12/19 09:05:22;;;;;;;13.87;11.20;;;;;;;0.91;100.00;96626.66;7400678;19;20405;-87
2023/12/19 09:07:50;;;;;;;19.30;13.03;;;;;;;0.68;100.00;96593.91;7401311;19;20409;-87
2023/12/19 09:10:17;;;;;;;15.87;14.20;;;;;;;1.11;100.00;96627.06;7400459;19;20388;-88
2023/12/19 09:12:45;;;;;;;16.20;13.93;;;;;;;1.22;100.00;96638.38;7398426;19;20490;-87
2023/12/19 09:15:13;;;;;;;15.03;13.00;;;;;;;1.14;100.00;96605.13;7400519;19;20421;-87
2023/12/19 09:17:41;;;;;;;14.37;12.57;;;;;;;1.44;100.00;96610.06;7401229;19;20835;-88
2023/12/19 09:20:10;;;;;;;15.17;12.10;;;;;;;1.85;100.00;96670.25;7400652;19;20409;-87
2023/12/19 09:22:37;;;;;;;14.43;11.60;;;;;;;1.59;100.00;96615.50;7398541;19;20484;-87
2023/12/19 09:25:13;;;;;;;17.17;12.63;;;;;;;1.99;100.00;96637.88;7400213;19;20398;-87
2023/12/19 09:27:43;;;;;;;16.20;12.10;;;;;;;1.76;100.00;96597.41;7400017;19;20397;-87
2023/12/19 09:30:12;;;;;;;15.67;13.30;;;;;;;1.78;100.00;96598.75;7402762;19;20395;-87
2023/12/19 09:32:40;;;;;;;23.43;12.87;;;;;;;1.85;100.00;96606.34;7418473;19;20428;-87
2023/12/19 09:35:12;;;;;;;22.40;14.97;;;;;;;2.10;100.00;96635.22;7422992;19;20365;-86
2023/12/19 09:37:40;;;;;;;20.83;14.20;;;;;;;2.07;100.00;96624.53;7424441;19;20392;-87
2023/12/19 09:40:18;;;;;;;18.47;11.50;;;;;;;2.74;100.00;96686.63;7427417;19;20441;-87
2023/12/19 09:42:46;;;;;;;18.30;13.30;;;;;;;2.67;100.00;96681.63;7429240;19;20424;-87
2023/12/19 09:45:14;;;;;;;14.40;11.70;;;;;;;2.66;100.00;96633.41;7431003;19;20417;-87
2023/12/19 09:47:53;;;;;;;14.67;12.27;;;;;;;2.32;100.00;96554.22;7431008;19;20393;-86
2023/12/19 09:50:23;;;;;;;16.83;11.90;;;;;;;2.10;100.00;96523.91;7431108;19;20418;-86
2023/12/19 09:52:55;;;;;;;20.50;13.00;;;;;;;2.47;100.00;96543.25;7421729;19;20421;-88
2023/12/19 09:55:28;;;;;;;14.17;11.23;;;;;;;2.41;100.00;96561.34;7404406;19;20365;-87
2023/12/19 09:57:58;;;;;;;17.30;12.33;;;;;;;3.32;100.00;96687.13;7401219;19;20389;-87
2023/12/19 10:00:30;;;;;;;15.53;10.80;;;;;;;2.42;100.00;96546.59;7400186;19;20678;-87
2023/12/19 10:02:59;;;;;;;16.33;12.53;;;;;;;2.39;100.00;96550.44;7398028;19;20396;-87
2023/12/19 10:05:26;;;;;;;13.20;11.30;;;;;;;2.65;100.00;96608.53;7400037;19;20397;-87
2023/12/19 10:07:57;;;;;;;13.57;11.20;;;;;;;2.50;100.00;96597.97;7400865;19;20365;-87
2023/12/19 10:10:56;;;;;;;14.00;12.53;;;;;;;3.07;100.00;96664.25;7398531;19;20394;-87
2023/12/19 10:13:29;;;;;;;11.37;10.00;;;;;;;2.59;100.00;96568.03;7398498;19;20380;-87
2023/12/19 10:16:04;;;;;;;12.30;9.60;;;;;;;3.37;100.00;96674.97;7398918;19;20385;-87
2023/12/19 10:18:58;;;;;;;13.50;10.27;;;;;;;3.23;100.00;96614.13;7396985;19;20380;-87
2023/12/19 10:21:28;;;;;;;14.03;11.63;;;;;;;3.40;100.00;96630.38;7396286;19;20964;-87
2023/12/19 10:24:09;;;;;;;11.87;10.03;;;;;;;3.08;100.00;96573.25;7400228;19;20373;-87
2023/12/19 10:26:38;;;;;;;12.10;10.50;;;;;;;3.22;100.00;96548.50;7398179;19;20409;-87
2023/12/19 10:29:06;;;;;;;14.43;11.40;;;;;;;3.03;100.00;96523.94;7398310;19;20385;-86
2023/12/19 10:31:34;;;;;;;10.67;9.40;;;;;;;3.31;100.00;96533.28;7397233;19;20397;-87
2023/12/19 10:34:04;;;;;;;14.40;11.67;;;;;;;3.32;100.00;96529.66;7399664;19;20385;-87
2023/12/19 10:36:33;;;;;;;16.17;12.33;;;;;;;2.74;100.00;96432.69;7397806;19;20377;-87
2023/12/19 10:39:05;;;;;;;11.10;9.67;;;;;;;3.26;100.00;96533.22;7396448;19;20420;-87
2023/12/19 10:41:35;;;;;;;13.07;10.73;;;;;;;3.77;100.00;96583.75;7397681;19;20411;-86
2023/12/19 10:44:03;;;;;;;15.60;10.60;;;;;;;3.26;100.00;96528.03;7398443;19;20463;-87
2023/12/19 10:46:31;;;;;;;12.30;10.37;;;;;;;2.58;100.00;96436.94;7397467;19;20380;-87
2023/12/19 10:49:01;;;;;;;14.77;11.47;;;;;;;3.42;100.00;96492.63;7397708;19;20679;-86
2023/12/19 10:51:32;;;;;;;14.27;10.60;;;;;;;4.28;100.00;96594.50;7396751;19;20898;-86
2023/12/19 10:54:11;;;;;;;14.10;10.00;;;;;;;3.67;100.00;96481.66;7398217;19;20372;-87
2023/12/19 10:56:59;;;;;;;11.93;9.93;;;;;;;4.57;100.00;96583.75;7399081;19;20373;-87
2023/12/19 10:59:30;;;;;;;9.23;8.27;;;;;;;4.67;100.00;96587.19;7395795;19;20385;-86
2023/12/19 11:02:37;;;;;;;10.83;8.83;;;;;;;4.85;100.00;96593.75;7396600;19;20725;-86
2023/12/19 11:05:10;;;;;;;12.87;11.57;;;;;;;3.93;100.00;96488.59;7396874;19;20394;-86
2023/12/19 11:07:42;;;;;;;11.40;10.20;;;;;;;4.27;100.00;96503.84;7397359;19;20384;-87
2023/12/19 11:10:11;;;;;;;11.93;10.37;;;;;;;4.22;100.00;96478.59;7397576;19;20385;-86
2023/12/19 11:12:41;;;;;;;11.17;10.03;;;;;;;4.31;100.00;96484.09;7395825;19;20413;-86
2023/12/19 11:15:08;;;;;;;12.00;9.70;;;;;;;4.36;100.00;96464.13;7396974;19;20365;-86
2023/12/19 11:17:51;;;;;;;12.20;9.63;;;;;;;4.55;100.00;96507.88;7397018;19;20396;-87
2023/12/19 11:20:34;;;;;;;12.33;9.67;;;;;;;5.06;100.00;96561.59;7397131;19;20420;-86
2023/12/19 11:23:43;;;;;;;8.70;7.37;;;;;;;4.69;100.00;96449.94;7395422;19;20411;-86